Impacts TAF Board
For situational awareness. Not to be used for flight planning purposes.
IDs:

KBFM - Mobile/Downtown Arpt, AL, US

Issued at 0520 UTC 03 Jul 2022
Updated at 0620 UTC 03 Jul 2022
Potential Impact None Slight Moderate High
Time0553Z 03/07Z 03/08Z 03/09Z 03/10Z 03/11Z 03/12Z 03/13Z 03/14Z 03/15Z 03/16Z 03/17Z 03/18Z 03/19Z>>
Type OBS PRVL PRVL PRVL PRVL PRVL PRVL PRVL PRVL PRVL PRVL
  [PRB30]  
PRVL
  [PRB30]  
PRVL
  [PRB30]  
PRVL
  [PRB30]  
VIS 10 >6 >6 >6 >6 >6 >6 >6 >6 6 6
  [4]  
6
  [4]  
6
  [4]  
6
  [4]  
CIG -- 200 200 200 200 200 80 80 80 90 90
  [20]  
90
  [20]  
90
  [20]  
90
  [20]  
Cover FEW BKN BKN BKN BKN BKN BKN BKN BKN BKN BKN
  [BKN]  
BKN
  [BKN]  
BKN
  [BKN]  
BKN
  [BKN]  
FltCat VFR VFR VFR VFR VFR VFR VFR VFR VFR VFR VFR
  [MVFR]  
VFR
  [MVFR]  
VFR
  [MVFR]  
VFR
  [MVFR]  
WX -- -- -- -- -- -- VCTS VCTS VCTS SHRA VCTS SHRA VCTS
  [TSRA]  
SHRA VCTS
  [TSRA]  
SHRA VCTS
  [TSRA]  
SHRA VCTS
  [TSRA]  
WDir 160 VRB VRB VRB VRB VRB VRB VRB VRB 140 140
[140]
140
[140]
140
[140]
140
[140]
WSpd 7 4 4 4 4 4 4 4 4 8 8
  [8]  
8
  [8]  
8
  [8]  
8
  [8]  
WGst -- -- -- -- -- -- -- -- -- -- --
  [--]  
--
  [--]  
--
  [--]  
--
  [--]  
WSHgt -- -- -- -- -- -- -- -- -- -- --
[--]
--
[--]
--
[--]
--
[--]
WSDir -- -- -- -- -- -- -- -- -- -- --
[--]
--
[--]
--
[--]
--
[--]
WSSpd -- -- -- -- -- -- -- -- -- -- --
[--]
--
[--]
--
[--]
--
[--]
Raw TAF
KBFM 030520Z 0306/0406 VRB04KT P6SM FEW030 SCT100 BKN200
  FM031200 VRB04KT P6SM VCTS SCT020CB BKN080
  FM031500 14008KT 6SM SHRA VCTS SCT020CB BKN090
  PROB30 0316/0322 4SM TSRA BKN020CB
  FM040100 22004KT P6SM VCSH FEW030 BKN200


Raw METAR
KBFM 030553Z 16007KT 10SM FEW018 28/25 A3003 RMK AO2 SLP170 T02780250 10283 20278 403060244 58005
KBFM 030453Z 14006KT 10SM FEW020 28/25 A3004 RMK AO2 SLP173 T02780250
KBFM 030353Z 16004KT 10SM CLR 28/24 A3005 RMK AO2 SLP177 T02780244

METAR Board
Radar Display
Forecast Discussion
For situational awareness. Not to be used for flight planning purposes.